sensor_id;sensor_type;location;lat;lon;timestamp;P1;durP1;ratioP1;P2;durP2;ratioP2
15693;SDS011;7947;48.834;9.132;2023-03-19T00:02:42;3.85;;;2.60;;
15693;SDS011;7947;48.834;9.132;2023-03-19T00:05:50;4.67;;;2.93;;
15693;SDS011;7947;48.834;9.132;2023-03-19T00:08:54;3.60;;;2.13;;
15693;SDS011;7947;48.834;9.132;2023-03-19T00:11:58;3.63;;;2.60;;
15693;SDS011;7947;48.834;9.132;2023-03-19T00:15:01;4.27;;;2.90;;
15693;SDS011;7947;48.834;9.132;2023-03-19T00:18:04;3.73;;;2.60;;
15693;SDS011;7947;48.834;9.132;2023-03-19T00:21:07;3.77;;;2.70;;
15693;SDS011;7947;48.834;9.132;2023-03-19T00:24:11;3.57;;;2.60;;
15693;SDS011;7947;48.834;9.132;2023-03-19T00:27:15;2.33;;;2.13;;
15693;SDS011;7947;48.834;9.132;2023-03-19T00:30:19;7.10;;;2.90;;
15693;SDS011;7947;48.834;9.132;2023-03-19T00:33:23;4.03;;;2.78;;
15693;SDS011;7947;48.834;9.132;2023-03-19T00:36:27;4.45;;;2.72;;
15693;SDS011;7947;48.834;9.132;2023-03-19T00:39:30;4.60;;;3.03;;
15693;SDS011;7947;48.834;9.132;2023-03-19T00:42:35;4.80;;;3.13;;
15693;SDS011;7947;48.834;9.132;2023-03-19T00:45:38;4.63;;;2.73;;
15693;SDS011;7947;48.834;9.132;2023-03-19T00:48:41;5.17;;;3.00;;
15693;SDS011;7947;48.834;9.132;2023-03-19T00:51:44;4.10;;;2.40;;
15693;SDS011;7947;48.834;9.132;2023-03-19T00:54:48;3.77;;;2.73;;
15693;SDS011;7947;48.834;9.132;2023-03-19T00:57:52;4.53;;;2.63;;
15693;SDS011;7947;48.834;9.132;2023-03-19T01:00:56;8.20;;;3.00;;
15693;SDS011;7947;48.834;9.132;2023-03-19T01:03:59;5.70;;;2.90;;
15693;SDS011;7947;48.834;9.132;2023-03-19T01:07:02;3.70;;;3.20;;
15693;SDS011;7947;48.834;9.132;2023-03-19T01:10:05;5.27;;;3.20;;
15693;SDS011;7947;48.834;9.132;2023-03-19T01:13:10;5.93;;;3.30;;
15693;SDS011;7947;48.834;9.132;2023-03-19T01:16:13;4.23;;;2.93;;
15693;SDS011;7947;48.834;9.132;2023-03-19T01:19:16;6.03;;;3.13;;
15693;SDS011;7947;48.834;9.132;2023-03-19T01:22:20;4.15;;;2.90;;
15693;SDS011;7947;48.834;9.132;2023-03-19T01:25:23;4.47;;;2.97;;
15693;SDS011;7947;48.834;9.132;2023-03-19T01:28:27;4.87;;;2.70;;
15693;SDS011;7947;48.834;9.132;2023-03-19T01:31:30;4.13;;;3.05;;
15693;SDS011;7947;48.834;9.132;2023-03-19T01:34:33;5.32;;;3.30;;
15693;SDS011;7947;48.834;9.132;2023-03-19T01:37:36;4.78;;;2.90;;
15693;SDS011;7947;48.834;9.132;2023-03-19T01:40:42;6.80;;;3.50;;
15693;SDS011;7947;48.834;9.132;2023-03-19T01:43:47;3.40;;;2.80;;
15693;SDS011;7947;48.834;9.132;2023-03-19T01:46:51;3.93;;;3.07;;
15693;SDS011;7947;48.834;9.132;2023-03-19T01:49:55;4.87;;;3.67;;
15693;SDS011;7947;48.834;9.132;2023-03-19T01:52:58;4.20;;;3.10;;
15693;SDS011;7947;48.834;9.132;2023-03-19T01:56:02;6.95;;;3.55;;
15693;SDS011;7947;48.834;9.132;2023-03-19T01:59:12;3.57;;;2.87;;
15693;SDS011;7947;48.834;9.132;2023-03-19T02:02:20;3.80;;;2.35;;
15693;SDS011;7947;48.834;9.132;2023-03-19T02:05:26;4.85;;;2.28;;
15693;SDS011;7947;48.834;9.132;2023-03-19T02:08:30;3.78;;;2.47;;
15693;SDS011;7947;48.834;9.132;2023-03-19T02:11:35;3.20;;;2.15;;
15693;SDS011;7947;48.834;9.132;2023-03-19T02:14:40;2.30;;;1.70;;
15693;SDS011;7947;48.834;9.132;2023-03-19T02:17:43;3.67;;;1.93;;
15693;SDS011;7947;48.834;9.132;2023-03-19T02:20:48;3.47;;;2.58;;
15693;SDS011;7947;48.834;9.132;2023-03-19T02:23:59;3.20;;;2.28;;
15693;SDS011;7947;48.834;9.132;2023-03-19T02:27:10;2.53;;;1.98;;
15693;SDS011;7947;48.834;9.132;2023-03-19T02:30:17;4.65;;;1.70;;
15693;SDS011;7947;48.834;9.132;2023-03-19T02:33:22;2.85;;;2.00;;
15693;SDS011;7947;48.834;9.132;2023-03-19T02:36:25;3.15;;;1.90;;
15693;SDS011;7947;48.834;9.132;2023-03-19T02:39:33;3.47;;;2.25;;
15693;SDS011;7947;48.834;9.132;2023-03-19T02:42:42;2.10;;;1.73;;
15693;SDS011;7947;48.834;9.132;2023-03-19T02:45:45;3.15;;;1.90;;
15693;SDS011;7947;48.834;9.132;2023-03-19T02:48:49;2.17;;;1.57;;
15693;SDS011;7947;48.834;9.132;2023-03-19T02:51:52;2.20;;;1.70;;
15693;SDS011;7947;48.834;9.132;2023-03-19T02:54:55;2.28;;;1.80;;
15693;SDS011;7947;48.834;9.132;2023-03-19T02:57:59;2.03;;;1.58;;
15693;SDS011;7947;48.834;9.132;2023-03-19T03:01:02;1.75;;;1.35;;
15693;SDS011;7947;48.834;9.132;2023-03-19T03:04:06;4.68;;;1.88;;
15693;SDS011;7947;48.834;9.132;2023-03-19T03:07:10;3.47;;;1.55;;
15693;SDS011;7947;48.834;9.132;2023-03-19T03:10:13;2.30;;;1.70;;
15693;SDS011;7947;48.834;9.132;2023-03-19T03:13:17;5.28;;;1.75;;
15693;SDS011;7947;48.834;9.132;2023-03-19T03:16:20;2.00;;;1.63;;
15693;SDS011;7947;48.834;9.132;2023-03-19T03:19:23;3.60;;;1.58;;
15693;SDS011;7947;48.834;9.132;2023-03-19T03:22:26;1.60;;;1.40;;
15693;SDS011;7947;48.834;9.132;2023-03-19T03:25:29;2.03;;;1.50;;
15693;SDS011;7947;48.834;9.132;2023-03-19T03:28:33;2.15;;;1.42;;
15693;SDS011;7947;48.834;9.132;2023-03-19T03:31:36;2.33;;;1.40;;
15693;SDS011;7947;48.834;9.132;2023-03-19T03:34:39;1.20;;;1.10;;
15693;SDS011;7947;48.834;9.132;2023-03-19T03:37:42;1.43;;;1.10;;
15693;SDS011;7947;48.834;9.132;2023-03-19T03:40:45;1.70;;;1.17;;
15693;SDS011;7947;48.834;9.132;2023-03-19T03:43:53;1.60;;;1.25;;
15693;SDS011;7947;48.834;9.132;2023-03-19T03:46:56;1.20;;;1.00;;
15693;SDS011;7947;48.834;9.132;2023-03-19T03:49:59;2.28;;;1.60;;
15693;SDS011;7947;48.834;9.132;2023-03-19T03:53:02;2.33;;;1.67;;
15693;SDS011;7947;48.834;9.132;2023-03-19T03:56:05;1.80;;;1.40;;
15693;SDS011;7947;48.834;9.132;2023-03-19T03:59:10;3.78;;;1.50;;
15693;SDS011;7947;48.834;9.132;2023-03-19T04:02:13;2.53;;;1.83;;
15693;SDS011;7947;48.834;9.132;2023-03-19T04:05:16;3.08;;;1.50;;
15693;SDS011;7947;48.834;9.132;2023-03-19T04:08:19;2.40;;;1.50;;
15693;SDS011;7947;48.834;9.132;2023-03-19T04:11:22;1.30;;;1.20;;
15693;SDS011;7947;48.834;9.132;2023-03-19T04:14:27;1.27;;;1.17;;
15693;SDS011;7947;48.834;9.132;2023-03-19T04:17:30;1.35;;;1.23;;
15693;SDS011;7947;48.834;9.132;2023-03-19T04:20:33;1.17;;;1.03;;
15693;SDS011;7947;48.834;9.132;2023-03-19T04:23:36;1.63;;;1.30;;
15693;SDS011;7947;48.834;9.132;2023-03-19T04:26:39;1.67;;;1.30;;
15693;SDS011;7947;48.834;9.132;2023-03-19T04:29:44;1.70;;;1.20;;
15693;SDS011;7947;48.834;9.132;2023-03-19T04:32:46;1.37;;;1.27;;
15693;SDS011;7947;48.834;9.132;2023-03-19T04:35:49;2.27;;;1.37;;
15693;SDS011;7947;48.834;9.132;2023-03-19T04:38:52;2.13;;;1.50;;
15693;SDS011;7947;48.834;9.132;2023-03-19T04:41:55;2.57;;;1.37;;
15693;SDS011;7947;48.834;9.132;2023-03-19T04:44:59;1.50;;;1.33;;
15693;SDS011;7947;48.834;9.132;2023-03-19T04:48:02;2.27;;;1.83;;
15693;SDS011;7947;48.834;9.132;2023-03-19T04:51:06;3.22;;;1.88;;
15693;SDS011;7947;48.834;9.132;2023-03-19T04:54:09;2.40;;;1.85;;
15693;SDS011;7947;48.834;9.132;2023-03-19T04:57:12;2.27;;;1.70;;
15693;SDS011;7947;48.834;9.132;2023-03-19T05:00:17;3.13;;;1.87;;
15693;SDS011;7947;48.834;9.132;2023-03-19T05:03:20;1.47;;;1.30;;
15693;SDS011;7947;48.834;9.132;2023-03-19T05:06:23;2.53;;;1.50;;
15693;SDS011;7947;48.834;9.132;2023-03-19T05:09:27;2.10;;;1.40;;
15693;SDS011;7947;48.834;9.132;2023-03-19T05:12:31;2.50;;;1.70;;
15693;SDS011;7947;48.834;9.132;2023-03-19T05:15:35;3.00;;;2.10;;
15693;SDS011;7947;48.834;9.132;2023-03-19T05:18:39;2.50;;;1.50;;
15693;SDS011;7947;48.834;9.132;2023-03-19T05:21:43;4.00;;;1.67;;
15693;SDS011;7947;48.834;9.132;2023-03-19T05:24:46;3.00;;;1.35;;
15693;SDS011;7947;48.834;9.132;2023-03-19T05:27:48;2.73;;;1.90;;
15693;SDS011;7947;48.834;9.132;2023-03-19T05:30:53;3.57;;;1.77;;
15693;SDS011;7947;48.834;9.132;2023-03-19T05:33:56;3.35;;;1.90;;
15693;SDS011;7947;48.834;9.132;2023-03-19T05:36:59;1.80;;;1.50;;
15693;SDS011;7947;48.834;9.132;2023-03-19T05:40:01;2.50;;;1.73;;
15693;SDS011;7947;48.834;9.132;2023-03-19T05:43:04;2.85;;;1.65;;
15693;SDS011;7947;48.834;9.132;2023-03-19T05:46:09;2.03;;;1.58;;
15693;SDS011;7947;48.834;9.132;2023-03-19T05:49:12;3.57;;;1.80;;
15693;SDS011;7947;48.834;9.132;2023-03-19T05:52:15;1.70;;;1.50;;
15693;SDS011;7947;48.834;9.132;2023-03-19T05:55:17;2.10;;;1.83;;
15693;SDS011;7947;48.834;9.132;2023-03-19T05:58:21;4.07;;;2.20;;
15693;SDS011;7947;48.834;9.132;2023-03-19T06:01:25;3.80;;;2.37;;
15693;SDS011;7947;48.834;9.132;2023-03-19T06:04:28;2.03;;;1.57;;
15693;SDS011;7947;48.834;9.132;2023-03-19T06:07:31;4.30;;;2.33;;
15693;SDS011;7947;48.834;9.132;2023-03-19T06:10:34;2.83;;;2.20;;
15693;SDS011;7947;48.834;9.132;2023-03-19T06:13:37;4.80;;;2.00;;
15693;SDS011;7947;48.834;9.132;2023-03-19T06:16:42;5.32;;;2.10;;
15693;SDS011;7947;48.834;9.132;2023-03-19T06:19:44;2.72;;;1.75;;
15693;SDS011;7947;48.834;9.132;2023-03-19T06:22:47;3.93;;;2.10;;
15693;SDS011;7947;48.834;9.132;2023-03-19T06:25:50;3.15;;;2.45;;
15693;SDS011;7947;48.834;9.132;2023-03-19T06:28:53;1.80;;;1.50;;
15693;SDS011;7947;48.834;9.132;2023-03-19T06:31:57;3.72;;;1.65;;
15693;SDS011;7947;48.834;9.132;2023-03-19T06:35:01;1.98;;;1.65;;
15693;SDS011;7947;48.834;9.132;2023-03-19T06:38:04;2.90;;;1.80;;
15693;SDS011;7947;48.834;9.132;2023-03-19T06:41:07;1.88;;;1.48;;
15693;SDS011;7947;48.834;9.132;2023-03-19T06:44:10;2.78;;;1.65;;
15693;SDS011;7947;48.834;9.132;2023-03-19T06:47:14;1.83;;;1.70;;
15693;SDS011;7947;48.834;9.132;2023-03-19T06:50:17;2.45;;;1.90;;
15693;SDS011;7947;48.834;9.132;2023-03-19T06:53:20;3.25;;;2.00;;
15693;SDS011;7947;48.834;9.132;2023-03-19T06:56:23;1.88;;;1.60;;
15693;SDS011;7947;48.834;9.132;2023-03-19T06:59:26;2.75;;;1.67;;
15693;SDS011;7947;48.834;9.132;2023-03-19T07:02:30;1.98;;;1.65;;
15693;SDS011;7947;48.834;9.132;2023-03-19T07:05:33;2.10;;;1.38;;
15693;SDS011;7947;48.834;9.132;2023-03-19T07:08:36;2.13;;;1.92;;
15693;SDS011;7947;48.834;9.132;2023-03-19T07:11:39;3.47;;;2.33;;
15693;SDS011;7947;48.834;9.132;2023-03-19T07:14:42;2.42;;;1.95;;
15693;SDS011;7947;48.834;9.132;2023-03-19T07:17:46;1.80;;;1.40;;
15693;SDS011;7947;48.834;9.132;2023-03-19T07:20:50;2.13;;;1.75;;
15693;SDS011;7947;48.834;9.132;2023-03-19T07:23:53;2.22;;;1.75;;
15693;SDS011;7947;48.834;9.132;2023-03-19T07:26:55;2.08;;;1.38;;
15693;SDS011;7947;48.834;9.132;2023-03-19T07:29:59;2.45;;;1.55;;
15693;SDS011;7947;48.834;9.132;2023-03-19T07:33:03;1.63;;;1.38;;
15693;SDS011;7947;48.834;9.132;2023-03-19T07:36:07;1.80;;;1.33;;
15693;SDS011;7947;48.834;9.132;2023-03-19T07:39:11;2.30;;;1.27;;
15693;SDS011;7947;48.834;9.132;2023-03-19T07:42:14;2.58;;;1.30;;
15693;SDS011;7947;48.834;9.132;2023-03-19T07:45:18;1.80;;;1.30;;
15693;SDS011;7947;48.834;9.132;2023-03-19T07:48:22;1.40;;;1.10;;
15693;SDS011;7947;48.834;9.132;2023-03-19T07:51:24;1.98;;;1.10;;
15693;SDS011;7947;48.834;9.132;2023-03-19T07:54:27;1.85;;;1.30;;
15693;SDS011;7947;48.834;9.132;2023-03-19T07:57:31;3.42;;;1.20;;
15693;SDS011;7947;48.834;9.132;2023-03-19T08:00:34;1.38;;;1.00;;
15693;SDS011;7947;48.834;9.132;2023-03-19T08:03:38;1.17;;;1.08;;
15693;SDS011;7947;48.834;9.132;2023-03-19T08:06:41;2.30;;;1.15;;
15693;SDS011;7947;48.834;9.132;2023-03-19T08:09:44;1.55;;;1.13;;
15693;SDS011;7947;48.834;9.132;2023-03-19T08:12:47;1.55;;;1.10;;
15693;SDS011;7947;48.834;9.132;2023-03-19T08:15:50;2.15;;;1.30;;
15693;SDS011;7947;48.834;9.132;2023-03-19T08:18:55;3.33;;;1.40;;
15693;SDS011;7947;48.834;9.132;2023-03-19T08:21:58;1.45;;;1.10;;
15693;SDS011;7947;48.834;9.132;2023-03-19T08:25:01;2.30;;;0.90;;
15693;SDS011;7947;48.834;9.132;2023-03-19T08:28:04;3.28;;;1.30;;
15693;SDS011;7947;48.834;9.132;2023-03-19T08:31:10;1.50;;;1.27;;
15693;SDS011;7947;48.834;9.132;2023-03-19T08:34:16;2.58;;;1.20;;
15693;SDS011;7947;48.834;9.132;2023-03-19T08:37:19;1.67;;;1.13;;
15693;SDS011;7947;48.834;9.132;2023-03-19T08:40:22;2.47;;;0.85;;
15693;SDS011;7947;48.834;9.132;2023-03-19T08:43:25;2.00;;;1.38;;
15693;SDS011;7947;48.834;9.132;2023-03-19T08:46:28;1.98;;;1.10;;
15693;SDS011;7947;48.834;9.132;2023-03-19T08:49:33;1.52;;;1.00;;
15693;SDS011;7947;48.834;9.132;2023-03-19T08:52:37;1.60;;;1.10;;
15693;SDS011;7947;48.834;9.132;2023-03-19T08:55:40;1.85;;;1.35;;
15693;SDS011;7947;48.834;9.132;2023-03-19T08:58:44;1.80;;;1.05;;
15693;SDS011;7947;48.834;9.132;2023-03-19T09:01:49;2.17;;;1.10;;
15693;SDS011;7947;48.834;9.132;2023-03-19T09:04:54;2.85;;;1.27;;
15693;SDS011;7947;48.834;9.132;2023-03-19T09:07:57;1.63;;;1.00;;
15693;SDS011;7947;48.834;9.132;2023-03-19T09:11:00;2.92;;;1.25;;
15693;SDS011;7947;48.834;9.132;2023-03-19T09:14:03;2.38;;;1.08;;
15693;SDS011;7947;48.834;9.132;2023-03-19T09:17:06;1.27;;;0.90;;
15693;SDS011;7947;48.834;9.132;2023-03-19T09:20:11;2.17;;;1.10;;
15693;SDS011;7947;48.834;9.132;2023-03-19T09:23:14;1.13;;;0.57;;
15693;SDS011;7947;48.834;9.132;2023-03-19T09:26:17;1.20;;;0.80;;
15693;SDS011;7947;48.834;9.132;2023-03-19T09:29:19;1.88;;;1.08;;
15693;SDS011;7947;48.834;9.132;2023-03-19T09:32:22;1.60;;;1.10;;
15693;SDS011;7947;48.834;9.132;2023-03-19T09:35:27;1.65;;;1.20;;
15693;SDS011;7947;48.834;9.132;2023-03-19T09:38:31;1.08;;;0.77;;
15693;SDS011;7947;48.834;9.132;2023-03-19T09:41:37;1.65;;;1.20;;
15693;SDS011;7947;48.834;9.132;2023-03-19T09:44:48;1.30;;;0.95;;
15693;SDS011;7947;48.834;9.132;2023-03-19T09:47:54;1.60;;;1.00;;
15693;SDS011;7947;48.834;9.132;2023-03-19T09:51:06;1.50;;;1.25;;
15693;SDS011;7947;48.834;9.132;2023-03-19T09:54:21;1.75;;;1.15;;
15693;SDS011;7947;48.834;9.132;2023-03-19T09:57:29;1.38;;;0.77;;
15693;SDS011;7947;48.834;9.132;2023-03-19T10:00:34;1.67;;;0.90;;
15693;SDS011;7947;48.834;9.132;2023-03-19T10:03:41;2.58;;;1.00;;
15693;SDS011;7947;48.834;9.132;2023-03-19T10:06:49;3.15;;;1.00;;
15693;SDS011;7947;48.834;9.132;2023-03-19T10:10:11;2.85;;;1.08;;
15693;SDS011;7947;48.834;9.132;2023-03-19T10:13:43;1.48;;;0.82;;
15693;SDS011;7947;48.834;9.132;2023-03-19T10:16:54;2.50;;;1.05;;
15693;SDS011;7947;48.834;9.132;2023-03-19T10:20:03;2.03;;;0.93;;
15693;SDS011;7947;48.834;9.132;2023-03-19T10:23:36;2.35;;;1.17;;
15693;SDS011;7947;48.834;9.132;2023-03-19T10:26:43;1.15;;;1.02;;
15693;SDS011;7947;48.834;9.132;2023-03-19T10:29:47;1.27;;;0.80;;
15693;SDS011;7947;48.834;9.132;2023-03-19T10:32:51;2.88;;;1.02;;
15693;SDS011;7947;48.834;9.132;2023-03-19T10:36:01;1.35;;;0.90;;
15693;SDS011;7947;48.834;9.132;2023-03-19T10:39:08;3.42;;;1.10;;
15693;SDS011;7947;48.834;9.132;2023-03-19T10:42:20;1.10;;;0.80;;
15693;SDS011;7947;48.834;9.132;2023-03-19T10:45:41;1.23;;;1.00;;
15693;SDS011;7947;48.834;9.132;2023-03-19T10:48:45;1.52;;;0.93;;
15693;SDS011;7947;48.834;9.132;2023-03-19T10:51:47;2.45;;;0.90;;
15693;SDS011;7947;48.834;9.132;2023-03-19T10:54:55;1.23;;;1.02;;
15693;SDS011;7947;48.834;9.132;2023-03-19T10:58:03;1.50;;;1.25;;
15693;SDS011;7947;48.834;9.132;2023-03-19T11:01:08;1.23;;;0.90;;
15693;SDS011;7947;48.834;9.132;2023-03-19T11:04:15;0.98;;;0.75;;
15693;SDS011;7947;48.834;9.132;2023-03-19T11:07:20;1.52;;;0.98;;
15693;SDS011;7947;48.834;9.132;2023-03-19T11:10:36;0.80;;;0.70;;
15693;SDS011;7947;48.834;9.132;2023-03-19T11:13:48;1.98;;;1.05;;
15693;SDS011;7947;48.834;9.132;2023-03-19T11:16:54;1.33;;;1.05;;
15693;SDS011;7947;48.834;9.132;2023-03-19T11:19:58;1.70;;;1.10;;
15693;SDS011;7947;48.834;9.132;2023-03-19T11:23:19;1.15;;;0.90;;
15693;SDS011;7947;48.834;9.132;2023-03-19T11:26:23;1.73;;;0.88;;
15693;SDS011;7947;48.834;9.132;2023-03-19T11:29:28;1.50;;;1.17;;
15693;SDS011;7947;48.834;9.132;2023-03-19T11:32:36;1.40;;;1.05;;
15693;SDS011;7947;48.834;9.132;2023-03-19T11:36:07;2.35;;;0.93;;
15693;SDS011;7947;48.834;9.132;2023-03-19T11:39:17;2.85;;;1.10;;
15693;SDS011;7947;48.834;9.132;2023-03-19T11:42:37;1.23;;;1.00;;
15693;SDS011;7947;48.834;9.132;2023-03-19T11:45:48;2.72;;;1.50;;
15693;SDS011;7947;48.834;9.132;2023-03-19T11:49:08;1.70;;;1.20;;
15693;SDS011;7947;48.834;9.132;2023-03-19T11:52:24;1.75;;;1.20;;
15693;SDS011;7947;48.834;9.132;2023-03-19T11:55:33;2.50;;;1.35;;
15693;SDS011;7947;48.834;9.132;2023-03-19T11:58:50;1.42;;;1.13;;
15693;SDS011;7947;48.834;9.132;2023-03-19T12:02:24;1.13;;;1.02;;
15693;SDS011;7947;48.834;9.132;2023-03-19T12:05:40;4.30;;;1.23;;
15693;SDS011;7947;48.834;9.132;2023-03-19T12:08:53;1.95;;;1.08;;
15693;SDS011;7947;48.834;9.132;2023-03-19T12:12:03;1.63;;;1.00;;
15693;SDS011;7947;48.834;9.132;2023-03-19T12:15:18;1.50;;;1.00;;
15693;SDS011;7947;48.834;9.132;2023-03-19T12:18:30;2.13;;;1.10;;
15693;SDS011;7947;48.834;9.132;2023-03-19T12:21:50;1.33;;;0.98;;
15693;SDS011;7947;48.834;9.132;2023-03-19T12:28:25;2.42;;;1.08;;
15693;SDS011;7947;48.834;9.132;2023-03-19T12:31:38;3.90;;;1.13;;
15693;SDS011;7947;48.834;9.132;2023-03-19T12:34:52;2.10;;;1.00;;
15693;SDS011;7947;48.834;9.132;2023-03-19T12:37:59;1.80;;;1.20;;
15693;SDS011;7947;48.834;9.132;2023-03-19T12:41:08;2.00;;;1.10;;
15693;SDS011;7947;48.834;9.132;2023-03-19T12:44:13;1.65;;;1.10;;
15693;SDS011;7947;48.834;9.132;2023-03-19T12:47:24;1.80;;;1.25;;
15693;SDS011;7947;48.834;9.132;2023-03-19T12:50:31;2.15;;;1.00;;
15693;SDS011;7947;48.834;9.132;2023-03-19T12:53:42;1.55;;;1.02;;
15693;SDS011;7947;48.834;9.132;2023-03-19T12:56:50;1.63;;;1.00;;
15693;SDS011;7947;48.834;9.132;2023-03-19T13:00:00;2.08;;;0.90;;
15693;SDS011;7947;48.834;9.132;2023-03-19T13:03:10;2.50;;;1.00;;
15693;SDS011;7947;48.834;9.132;2023-03-19T13:06:20;1.20;;;1.00;;
15693;SDS011;7947;48.834;9.132;2023-03-19T13:09:28;1.23;;;0.95;;
15693;SDS011;7947;48.834;9.132;2023-03-19T13:12:35;1.42;;;1.10;;
15693;SDS011;7947;48.834;9.132;2023-03-19T13:15:40;2.08;;;1.10;;
15693;SDS011;7947;48.834;9.132;2023-03-19T13:18:52;1.83;;;0.80;;
15693;SDS011;7947;48.834;9.132;2023-03-19T13:22:05;2.55;;;1.40;;
15693;SDS011;7947;48.834;9.132;2023-03-19T13:25:13;2.42;;;0.98;;
15693;SDS011;7947;48.834;9.132;2023-03-19T13:28:22;1.52;;;1.20;;
15693;SDS011;7947;48.834;9.132;2023-03-19T13:31:32;1.00;;;0.90;;
15693;SDS011;7947;48.834;9.132;2023-03-19T13:34:38;2.17;;;1.30;;
15693;SDS011;7947;48.834;9.132;2023-03-19T13:37:41;1.52;;;1.10;;
15693;SDS011;7947;48.834;9.132;2023-03-19T13:40:46;1.92;;;0.90;;
15693;SDS011;7947;48.834;9.132;2023-03-19T13:43:51;1.92;;;0.88;;
15693;SDS011;7947;48.834;9.132;2023-03-19T13:46:54;1.20;;;0.90;;
15693;SDS011;7947;48.834;9.132;2023-03-19T13:50:10;1.95;;;1.00;;
15693;SDS011;7947;48.834;9.132;2023-03-19T13:53:36;1.92;;;1.00;;
15693;SDS011;7947;48.834;9.132;2023-03-19T14:03:59;2.83;;;1.40;;
15693;SDS011;7947;48.834;9.132;2023-03-19T14:07:15;2.00;;;1.10;;
15693;SDS011;7947;48.834;9.132;2023-03-19T14:10:24;3.55;;;1.48;;
15693;SDS011;7947;48.834;9.132;2023-03-19T14:13:31;1.63;;;1.23;;
15693;SDS011;7947;48.834;9.132;2023-03-19T14:16:36;2.42;;;1.50;;
15693;SDS011;7947;48.834;9.132;2023-03-19T14:19:43;1.92;;;1.38;;
15693;SDS011;7947;48.834;9.132;2023-03-19T14:22:55;2.67;;;1.50;;
15693;SDS011;7947;48.834;9.132;2023-03-19T14:26:15;2.95;;;1.30;;
15693;SDS011;7947;48.834;9.132;2023-03-19T14:29:19;3.67;;;1.50;;
15693;SDS011;7947;48.834;9.132;2023-03-19T14:32:28;7.03;;;1.63;;
15693;SDS011;7947;48.834;9.132;2023-03-19T14:35:38;2.60;;;1.20;;
15693;SDS011;7947;48.834;9.132;2023-03-19T14:38:48;2.38;;;1.17;;
15693;SDS011;7947;48.834;9.132;2023-03-19T14:41:55;5.00;;;1.40;;
15693;SDS011;7947;48.834;9.132;2023-03-19T14:45:24;1.77;;;1.23;;
15693;SDS011;7947;48.834;9.132;2023-03-19T14:48:56;1.95;;;1.13;;
15693;SDS011;7947;48.834;9.132;2023-03-19T14:52:18;1.35;;;1.08;;
15693;SDS011;7947;48.834;9.132;2023-03-19T14:55:32;1.95;;;0.98;;
15693;SDS011;7947;48.834;9.132;2023-03-19T14:58:46;3.80;;;1.08;;
15693;SDS011;7947;48.834;9.132;2023-03-19T15:01:50;1.08;;;0.90;;
15693;SDS011;7947;48.834;9.132;2023-03-19T15:04:54;1.58;;;0.90;;
15693;SDS011;7947;48.834;9.132;2023-03-19T15:08:01;2.40;;;0.85;;
15693;SDS011;7947;48.834;9.132;2023-03-19T15:11:12;1.73;;;0.82;;
15693;SDS011;7947;48.834;9.132;2023-03-19T15:14:35;1.17;;;0.77;;
15693;SDS011;7947;48.834;9.132;2023-03-19T15:17:49;1.45;;;0.80;;
15693;SDS011;7947;48.834;9.132;2023-03-19T15:21:04;1.50;;;0.93;;
15693;SDS011;7947;48.834;9.132;2023-03-19T15:24:12;1.20;;;0.70;;
15693;SDS011;7947;48.834;9.132;2023-03-19T15:27:19;1.52;;;1.10;;
15693;SDS011;7947;48.834;9.132;2023-03-19T15:30:24;1.30;;;0.98;;
15693;SDS011;7947;48.834;9.132;2023-03-19T15:33:33;1.60;;;1.00;;
15693;SDS011;7947;48.834;9.132;2023-03-19T15:36:42;1.45;;;0.90;;
15693;SDS011;7947;48.834;9.132;2023-03-19T15:39:46;2.70;;;1.05;;
15693;SDS011;7947;48.834;9.132;2023-03-19T15:42:54;1.23;;;0.95;;
15693;SDS011;7947;48.834;9.132;2023-03-19T15:45:59;1.58;;;1.00;;
15693;SDS011;7947;48.834;9.132;2023-03-19T15:49:03;1.02;;;0.75;;
15693;SDS011;7947;48.834;9.132;2023-03-19T15:52:11;1.00;;;0.70;;
15693;SDS011;7947;48.834;9.132;2023-03-19T15:55:19;1.13;;;1.00;;
15693;SDS011;7947;48.834;9.132;2023-03-19T15:58:24;1.88;;;0.80;;
15693;SDS011;7947;48.834;9.132;2023-03-19T16:01:30;3.38;;;1.00;;
15693;SDS011;7947;48.834;9.132;2023-03-19T16:04:35;2.25;;;1.20;;
15693;SDS011;7947;48.834;9.132;2023-03-19T16:07:58;3.28;;;0.95;;
15693;SDS011;7947;48.834;9.132;2023-03-19T16:11:12;3.35;;;1.33;;
15693;SDS011;7947;48.834;9.132;2023-03-19T16:14:22;4.18;;;2.05;;
15693;SDS011;7947;48.834;9.132;2023-03-19T16:17:32;2.20;;;1.30;;
15693;SDS011;7947;48.834;9.132;2023-03-19T16:20:40;3.92;;;1.40;;
15693;SDS011;7947;48.834;9.132;2023-03-19T16:23:49;2.85;;;1.20;;
15693;SDS011;7947;48.834;9.132;2023-03-19T16:26:54;1.63;;;1.27;;
15693;SDS011;7947;48.834;9.132;2023-03-19T16:30:00;1.75;;;1.25;;
15693;SDS011;7947;48.834;9.132;2023-03-19T16:33:04;2.35;;;1.10;;
15693;SDS011;7947;48.834;9.132;2023-03-19T16:36:10;2.58;;;0.90;;
15693;SDS011;7947;48.834;9.132;2023-03-19T16:39:23;1.50;;;1.23;;
15693;SDS011;7947;48.834;9.132;2023-03-19T16:42:39;1.77;;;0.80;;
15693;SDS011;7947;48.834;9.132;2023-03-19T16:45:51;1.05;;;0.95;;
15693;SDS011;7947;48.834;9.132;2023-03-19T16:49:39;1.27;;;1.02;;
15693;SDS011;7947;48.834;9.132;2023-03-19T17:02:22;1.65;;;1.23;;
15693;SDS011;7947;48.834;9.132;2023-03-19T17:05:25;1.15;;;0.90;;
15693;SDS011;7947;48.834;9.132;2023-03-19T17:17:55;0.68;;;0.55;;
15693;SDS011;7947;48.834;9.132;2023-03-19T17:29:43;2.67;;;0.70;;
15693;SDS011;7947;48.834;9.132;2023-03-19T17:32:46;13.30;;;6.70;;
15693;SDS011;7947;48.834;9.132;2023-03-19T17:35:53;6.22;;;2.67;;
15693;SDS011;7947;48.834;9.132;2023-03-19T17:38:57;2.97;;;1.42;;
15693;SDS011;7947;48.834;9.132;2023-03-19T17:41:59;4.13;;;2.90;;
15693;SDS011;7947;48.834;9.132;2023-03-19T17:45:02;3.17;;;2.80;;
15693;SDS011;7947;48.834;9.132;2023-03-19T17:48:05;1.83;;;1.63;;
15693;SDS011;7947;48.834;9.132;2023-03-19T17:51:17;2.80;;;2.22;;
15693;SDS011;7947;48.834;9.132;2023-03-19T17:54:20;2.05;;;1.63;;
15693;SDS011;7947;48.834;9.132;2023-03-19T17:57:26;2.63;;;1.60;;
15693;SDS011;7947;48.834;9.132;2023-03-19T18:00:28;3.55;;;1.60;;
15693;SDS011;7947;48.834;9.132;2023-03-19T18:03:33;1.92;;;1.60;;
15693;SDS011;7947;48.834;9.132;2023-03-19T18:06:38;3.45;;;1.42;;
15693;SDS011;7947;48.834;9.132;2023-03-19T18:09:43;2.75;;;1.25;;
15693;SDS011;7947;48.834;9.132;2023-03-19T18:12:46;4.57;;;1.60;;
15693;SDS011;7947;48.834;9.132;2023-03-19T18:15:49;1.58;;;1.48;;
15693;SDS011;7947;48.834;9.132;2023-03-19T18:18:52;1.98;;;1.55;;
15693;SDS011;7947;48.834;9.132;2023-03-19T18:21:56;1.50;;;1.40;;
15693;SDS011;7947;48.834;9.132;2023-03-19T18:24:59;2.70;;;1.08;;
15693;SDS011;7947;48.834;9.132;2023-03-19T18:28:02;1.30;;;1.20;;
15693;SDS011;7947;48.834;9.132;2023-03-19T18:31:08;1.75;;;1.40;;
15693;SDS011;7947;48.834;9.132;2023-03-19T18:34:15;2.47;;;1.17;;
15693;SDS011;7947;48.834;9.132;2023-03-19T18:37:20;1.58;;;1.30;;
15693;SDS011;7947;48.834;9.132;2023-03-19T18:40:24;1.13;;;0.90;;
15693;SDS011;7947;48.834;9.132;2023-03-19T18:43:28;1.52;;;1.00;;
15693;SDS011;7947;48.834;9.132;2023-03-19T18:46:31;0.82;;;0.82;;
15693;SDS011;7947;48.834;9.132;2023-03-19T18:49:35;2.42;;;1.00;;
15693;SDS011;7947;48.834;9.132;2023-03-19T18:52:39;1.00;;;0.90;;
15693;SDS011;7947;48.834;9.132;2023-03-19T18:55:42;2.83;;;1.00;;
15693;SDS011;7947;48.834;9.132;2023-03-19T18:58:45;1.40;;;1.30;;
15693;SDS011;7947;48.834;9.132;2023-03-19T19:01:48;1.77;;;1.15;;
15693;SDS011;7947;48.834;9.132;2023-03-19T19:04:52;1.40;;;1.20;;
15693;SDS011;7947;48.834;9.132;2023-03-19T19:07:57;1.67;;;1.40;;
15693;SDS011;7947;48.834;9.132;2023-03-19T19:11:01;1.30;;;1.10;;
15693;SDS011;7947;48.834;9.132;2023-03-19T19:14:07;1.20;;;1.10;;
15693;SDS011;7947;48.834;9.132;2023-03-19T19:17:17;1.65;;;1.27;;
15693;SDS011;7947;48.834;9.132;2023-03-19T19:20:24;2.13;;;1.40;;
15693;SDS011;7947;48.834;9.132;2023-03-19T19:23:29;2.75;;;1.70;;
15693;SDS011;7947;48.834;9.132;2023-03-19T19:26:32;1.60;;;1.20;;
15693;SDS011;7947;48.834;9.132;2023-03-19T19:29:37;1.38;;;1.23;;
15693;SDS011;7947;48.834;9.132;2023-03-19T19:32:39;1.98;;;1.50;;
15693;SDS011;7947;48.834;9.132;2023-03-19T19:35:42;1.90;;;1.30;;
15693;SDS011;7947;48.834;9.132;2023-03-19T19:38:47;3.05;;;1.20;;